Terminal Aerodrome Forecast
Issued by NWS Oklahoma City, OK

Home | Current Version | Previous Version | Text Only | Print | Product List | Glossary On
Versions: 1 2 3 4 5 6 7 8 9 10 11 12 13 14 15 16 17 18 19 20 21 22 23 24
000
FTUS44 KOUN 220523
TAFOUN
TAF
KOUN 220523Z 2206/2306 16011KT P6SM FEW250
     FM221500 19016G22KT P6SM SCT250
     FM230300 16011KT P6SM SKC=

USA.gov is the U.S. government's official web portal to all federal, state and local government web resources and services.